Time;durP1;ratioP1;P1;durP2;ratioP2;P2;SDS_P1;SDS_P2;PMS_P1;PMS_P2;Temp;Humidity;BMP_temperature;BMP_pressure;BME280_temperature;BME280_humidity;BME280_pressure;Samples;Min_cycle;Max_cycle;Signal;HPM_P1;HPM_P2
2022/01/12 00:02:18;;;;;;;116.95;54.35;;;3.40;99.90;;;;;;5009850;28;20081;-60
2022/01/12 00:04:44;;;;;;;111.47;53.53;;;3.40;99.90;;;;;;5003181;28;20183;-60
2022/01/12 00:07:10;;;;;;;113.55;55.35;;;3.40;99.90;;;;;;5015440;28;20064;-60
2022/01/12 00:09:36;;;;;;;128.25;55.30;;;3.40;99.90;;;;;;4995409;28;20089;-60
2022/01/12 00:12:02;;;;;;;130.30;56.92;;;3.40;99.90;;;;;;5016915;28;20661;-60
2022/01/12 00:14:28;;;;;;;138.18;58.45;;;3.40;99.90;;;;;;5008498;28;20053;-60
2022/01/12 00:16:59;;;;;;;152.63;59.35;;;3.40;99.90;;;;;;5009970;28;20084;-60
2022/01/12 00:19:27;;;;;;;141.20;62.72;;;3.50;99.90;;;;;;5013660;28;20049;-60
2022/01/12 00:21:55;;;;;;;157.88;59.30;;;3.40;99.90;;;;;;4997286;28;20077;-60
2022/01/12 00:24:25;;;;;;;158.80;61.83;;;3.50;99.90;;;;;;4978561;28;20042;-60
2022/01/12 00:35:19;;;;;;;197.30;68.47;;;3.40;99.90;;;;;;4997601;28;20480;-59
2022/01/12 00:37:45;;;;;;;209.98;69.47;;;3.50;99.90;;;;;;5001740;28;20583;-60
2022/01/12 00:40:12;;;;;;;227.10;72.07;;;3.50;99.90;;;;;;5007428;28;20522;-60
2022/01/12 00:42:38;;;;;;;210.75;69.53;;;3.50;99.90;;;;;;5024938;28;20120;-60
2022/01/12 00:45:05;;;;;;;239.27;71.22;;;3.50;99.90;;;;;;4987090;28;20075;-60
2022/01/12 00:47:31;;;;;;;231.20;73.03;;;3.50;99.90;;;;;;4993467;28;20053;-60
2022/01/12 00:49:57;;;;;;;238.57;72.55;;;3.50;99.90;;;;;;5001101;28;20068;-60
2022/01/12 00:52:23;;;;;;;227.35;74.10;;;3.50;99.90;;;;;;5022058;28;20124;-60
2022/01/12 00:54:49;;;;;;;244.82;75.50;;;3.50;99.90;;;;;;4982770;28;20132;-60
2022/01/12 00:57:15;;;;;;;231.40;73.72;;;3.50;99.90;;;;;;4977236;28;20568;-60
2022/01/12 00:59:41;;;;;;;200.23;67.47;;;3.50;99.90;;;;;;5017093;28;20050;-60
2022/01/12 01:02:08;;;;;;;217.13;70.13;;;3.50;99.90;;;;;;5018635;28;20570;-60
2022/01/12 01:04:35;;;;;;;176.65;64.72;;;3.50;99.90;;;;;;5027899;28;20052;-60
2022/01/12 01:07:01;;;;;;;182.85;65.82;;;3.50;99.90;;;;;;5001318;28;20045;-61
2022/01/12 01:09:28;;;;;;;180.20;64.55;;;3.40;99.90;;;;;;5016443;28;20472;-60
2022/01/12 01:11:56;;;;;;;195.73;69.53;;;3.50;99.90;;;;;;4995604;28;20089;-60
2022/01/12 01:14:44;;;;;;;170.00;62.45;;;3.50;99.90;;;;;;4978961;28;20043;-61
2022/01/12 01:25:46;;;;;;;177.43;62.95;;;3.50;99.90;;;;;;5013312;28;20632;-60
2022/01/12 01:28:15;;;;;;;186.25;62.15;;;3.60;99.90;;;;;;5010641;28;20072;-60
2022/01/12 01:30:43;;;;;;;211.77;66.63;;;3.60;99.90;;;;;;5012218;28;20120;-61
2022/01/12 01:33:11;;;;;;;195.02;67.78;;;3.60;99.90;;;;;;4980417;28;20408;-61
2022/01/12 01:35:41;;;;;;;209.32;68.00;;;3.60;99.90;;;;;;4989681;28;20124;-61
2022/01/12 01:38:08;;;;;;;228.35;68.43;;;3.50;99.90;;;;;;4994797;28;20163;-61
2022/01/12 01:40:37;;;;;;;246.07;70.50;;;3.60;99.90;;;;;;4996171;28;20076;-60
2022/01/12 01:53:54;;;;;;;232.45;70.40;;;3.60;99.90;;;;;;4991071;28;20465;-60
2022/01/12 01:56:23;;;;;;;269.95;74.60;;;3.60;99.90;;;;;;5002475;28;20108;-60
2022/01/12 01:58:49;;;;;;;263.77;71.20;;;3.60;99.90;;;;;;5011688;28;20064;-60
2022/01/12 02:01:16;;;;;;;239.73;70.65;;;3.60;99.90;;;;;;5010344;28;21022;-60
2022/01/12 02:03:53;;;;;;;311.23;78.75;;;3.70;99.90;;;;;;4983557;28;20045;-61
2022/01/12 02:06:20;;;;;;;313.67;79.15;;;3.70;99.90;;;;;;4994556;28;20042;-61
2022/01/12 02:08:46;;;;;;;253.30;71.55;;;3.70;99.90;;;;;;5007690;28;20055;-60
2022/01/12 02:11:36;;;;;;;354.85;82.18;;;3.70;99.90;;;;;;4982467;28;20050;-60
2022/01/12 02:14:12;;;;;;;301.35;74.20;;;3.70;99.90;;;;;;4989372;28;20046;-61
2022/01/12 02:16:51;;;;;;;253.13;69.97;;;3.70;99.90;;;;;;4984942;28;20468;-61
2022/01/12 02:19:41;;;;;;;304.08;75.55;;;3.70;99.90;;;;;;4992106;28;20767;-60
2022/01/12 02:35:53;;;;;;;329.10;79.13;;;3.70;99.90;;;;;;4974585;28;20049;-61
2022/01/12 02:41:05;;;;;;;300.67;77.63;;;3.70;99.90;;;;;;4993406;28;20089;-61
2022/01/12 02:54:01;;;;;;;365.05;82.88;;;3.80;99.90;;;;;;5022235;28;20052;-61
2022/01/12 02:56:33;;;;;;;399.95;83.82;;;3.80;99.90;;;;;;4994075;28;20099;-61
2022/01/12 02:59:00;;;;;;;386.45;83.18;;;3.80;99.90;;;;;;4977502;28;20061;-61
2022/01/12 03:01:53;;;;;;;397.90;79.40;;;3.80;99.90;;;;;;5006857;28;20145;-61
2022/01/12 03:04:16;;;;;;;387.42;83.68;;;3.80;99.90;;;;;;4996690;28;20053;-62
2022/01/12 03:06:45;;;;;;;340.02;79.50;;;3.80;99.90;;;;;;4990921;28;20440;-61
2022/01/12 03:09:13;;;;;;;466.73;91.45;;;3.80;99.90;;;;;;5006824;28;20046;-61
2022/01/12 03:11:39;;;;;;;435.77;84.03;;;3.80;99.90;;;;;;4993376;28;20132;-61
2022/01/12 03:14:18;;;;;;;384.17;79.63;;;3.80;99.90;;;;;;4994871;28;20160;-60
2022/01/12 03:16:44;;;;;;;444.55;88.25;;;3.80;99.90;;;;;;4990692;28;20616;-61
2022/01/12 03:19:21;;;;;;;310.00;73.85;;;3.80;99.90;;;;;;5006039;28;20452;-60
2022/01/12 03:21:47;;;;;;;359.35;78.47;;;3.80;99.90;;;;;;4960348;28;20046;-60
2022/01/12 03:24:15;;;;;;;428.77;87.13;;;3.80;99.90;;;;;;4995397;28;20125;-61
2022/01/12 03:26:41;;;;;;;416.75;84.95;;;3.80;99.90;;;;;;5001539;28;20133;-61
2022/01/12 03:29:10;;;;;;;342.95;75.57;;;3.80;99.90;;;;;;4997661;28;20050;-61
2022/01/12 03:31:37;;;;;;;408.33;80.25;;;3.80;99.90;;;;;;5005893;28;20046;-61
2022/01/12 03:37:05;;;;;;;434.40;83.65;;;3.90;99.90;;;;;;4977987;28;20445;-61
2022/01/12 03:39:29;;;;;;;371.60;79.35;;;3.90;99.90;;;;;;4971942;28;20127;-61
2022/01/12 03:41:56;;;;;;;390.40;82.60;;;3.90;99.90;;;;;;4990121;28;20662;-61
2022/01/12 03:44:22;;;;;;;387.65;80.35;;;3.90;99.90;;;;;;5003660;28;20121;-61
2022/01/12 03:46:51;;;;;;;372.58;78.28;;;3.90;99.90;;;;;;4990801;28;20051;-61
2022/01/12 03:49:20;;;;;;;433.15;83.13;;;3.90;99.90;;;;;;4985525;28;20065;-62
2022/01/12 03:51:47;;;;;;;412.05;80.30;;;3.90;99.90;;;;;;4989011;28;20089;-61
2022/01/12 03:54:13;;;;;;;496.42;90.93;;;3.90;99.90;;;;;;4999832;28;20046;-61
2022/01/12 03:56:40;;;;;;;422.95;81.65;;;3.90;99.90;;;;;;4992708;28;20130;-61
2022/01/12 03:59:07;;;;;;;373.15;79.07;;;3.90;99.90;;;;;;5004664;28;20554;-62
2022/01/12 04:01:37;;;;;;;377.88;81.88;;;3.90;99.90;;;;;;4976546;28;20042;-61
2022/01/12 04:04:09;;;;;;;323.50;73.70;;;4.00;99.90;;;;;;4996603;28;20046;-62
2022/01/12 04:09:20;;;;;;;377.52;74.68;;;3.90;99.90;;;;;;4981397;28;20392;-61
2022/01/12 04:11:46;;;;;;;366.92;79.70;;;3.90;99.90;;;;;;4977776;28;20450;-61
2022/01/12 04:14:13;;;;;;;288.02;67.68;;;3.90;99.90;;;;;;5001262;28;20089;-62
2022/01/12 04:16:40;;;;;;;358.92;77.07;;;3.90;99.90;;;;;;4973032;28;20050;-62
2022/01/12 04:19:06;;;;;;;303.33;77.55;;;3.90;99.90;;;;;;4994421;28;20107;-62
2022/01/12 04:21:40;;;;;;;267.75;68.20;;;3.90;99.90;;;;;;4991277;28;20048;-61
2022/01/12 04:24:07;;;;;;;258.58;66.72;;;3.90;99.90;;;;;;5005135;28;20054;-62
2022/01/12 04:26:33;;;;;;;323.23;72.45;;;3.80;99.90;;;;;;4976504;28;20050;-62
2022/01/12 04:29:00;;;;;;;310.90;73.43;;;3.80;99.90;;;;;;4981944;28;20089;-61
2022/01/12 04:31:26;;;;;;;333.75;75.35;;;3.90;99.90;;;;;;4983369;28;20484;-61
2022/01/12 04:33:52;;;;;;;317.25;76.05;;;3.80;99.90;;;;;;5007505;28;20053;-62
2022/01/12 04:36:19;;;;;;;319.98;72.18;;;3.90;99.90;;;;;;5001396;28;20138;-62
2022/01/12 04:38:46;;;;;;;269.13;69.10;;;3.80;99.90;;;;;;4960124;28;20050;-62
2022/01/12 04:41:12;;;;;;;274.42;70.20;;;3.80;99.90;;;;;;4978812;28;20054;-62
2022/01/12 04:43:42;;;;;;;299.95;74.13;;;3.80;99.90;;;;;;4979933;28;20065;-62
2022/01/12 04:46:22;;;;;;;343.52;75.97;;;3.80;99.90;;;;;;5010583;28;20069;-62
2022/01/12 04:48:53;;;;;;;238.43;64.93;;;3.70;99.90;;;;;;5006139;28;20517;-62
2022/01/12 04:51:21;;;;;;;239.98;64.95;;;3.70;99.90;;;;;;4975841;28;20122;-62
2022/01/12 04:53:47;;;;;;;243.10;65.35;;;3.60;99.90;;;;;;5006636;28;20512;-62
2022/01/12 04:56:13;;;;;;;221.45;64.13;;;3.60;99.90;;;;;;4984713;28;20445;-62
2022/01/12 04:58:40;;;;;;;244.43;64.40;;;3.60;99.90;;;;;;5006815;28;20553;-61
2022/01/12 05:01:13;;;;;;;251.57;63.75;;;3.50;99.90;;;;;;5000731;28;20049;-62
2022/01/12 05:09:28;;;;;;;350.23;73.40;;;3.30;99.90;;;;;;4979077;28;20064;-61
2022/01/12 05:14:45;;;;;;;271.33;62.85;;;3.20;99.90;;;;;;4984588;28;20196;-61
2022/01/12 05:17:11;;;;;;;;;;;3.20;99.90;;;;;;4983208;28;20050;-61
2022/01/12 05:19:37;;;;;;;451.45;73.80;;;3.10;99.90;;;;;;5001845;28;20008;-61
2022/01/12 05:22:04;;;;;;;645.85;94.38;;;3.00;99.90;;;;;;5001288;28;20104;-61
2022/01/12 05:24:31;;;;;;;482.83;79.15;;;2.90;99.90;;;;;;4999617;28;20129;-61
2022/01/12 05:26:58;;;;;;;411.00;75.55;;;2.90;99.90;;;;;;4980552;28;20046;-61
2022/01/12 05:29:24;;;;;;;708.20;102.60;;;2.90;99.90;;;;;;4974269;28;20117;-61
2022/01/12 05:31:51;;;;;;;516.38;75.25;;;2.80;99.90;;;;;;4998868;28;20051;-63
2022/01/12 05:34:17;;;;;;;567.25;83.20;;;2.80;99.90;;;;;;5000055;28;20065;-61
2022/01/12 05:36:43;;;;;;;529.30;82.38;;;2.80;99.90;;;;;;4984941;28;20085;-61
2022/01/12 05:39:09;;;;;;;483.95;82.15;;;2.80;99.90;;;;;;5002455;28;20041;-61
2022/01/12 05:41:35;;;;;;;399.58;73.03;;;2.80;99.90;;;;;;4986203;28;20105;-61
2022/01/12 05:44:05;;;;;;;389.75;70.38;;;2.90;99.90;;;;;;5001471;28;20042;-61
2022/01/12 05:46:32;;;;;;;284.10;61.65;;;2.90;99.90;;;;;;5000611;28;20373;-61
2022/01/12 05:52:11;;;;;;;328.00;65.68;;;3.00;99.90;;;;;;4912966;29;20056;-61
2022/01/12 05:54:38;;;;;;;396.00;71.97;;;3.00;99.90;;;;;;4929750;29;20066;-61
2022/01/12 05:57:05;;;;;;;430.40;76.38;;;3.10;99.90;;;;;;4956259;28;20527;-61
2022/01/12 05:59:31;;;;;;;642.20;97.32;;;3.10;99.90;;;;;;4983485;28;20049;-61
2022/01/12 06:01:57;;;;;;;544.10;75.85;;;3.10;99.90;;;;;;4980812;28;20038;-61
2022/01/12 06:04:24;;;;;;;743.85;100.82;;;3.00;99.90;;;;;;4969548;28;20129;-61
2022/01/12 06:06:50;;;;;;;604.30;78.32;;;3.00;99.90;;;;;;5001497;28;21814;-61
2022/01/12 06:09:17;;;;;;;738.20;91.97;;;3.00;99.90;;;;;;5003090;28;20100;-61
2022/01/12 06:11:44;;;;;;;866.38;111.45;;;3.00;99.90;;;;;;4997007;28;20062;-62
2022/01/12 06:14:12;;;;;;;744.47;96.35;;;2.90;99.90;;;;;;5018674;28;20120;-61
2022/01/12 06:16:39;;;;;;;697.10;90.50;;;2.90;99.90;;;;;;5003480;28;20050;-61
2022/01/12 06:19:05;;;;;;;742.90;93.05;;;2.90;99.90;;;;;;5004243;28;20054;-61
2022/01/12 06:21:42;;;;;;;737.90;93.35;;;3.00;99.90;;;;;;5017594;28;20054;-61
2022/01/12 06:24:13;;;;;;;641.45;85.78;;;2.90;99.90;;;;;;5018321;28;20045;-62
2022/01/12 06:26:42;;;;;;;560.70;80.82;;;2.90;99.90;;;;;;5013874;28;20120;-62
2022/01/12 06:31:45;;;;;;;473.60;75.07;;;3.00;99.90;;;;;;5003379;28;21926;-62
2022/01/12 06:34:12;;;;;;;536.50;75.05;;;3.00;99.90;;;;;;4988140;28;20056;-62
2022/01/12 06:36:38;;;;;;;648.22;88.43;;;2.90;99.90;;;;;;5002173;28;20081;-62
2022/01/12 06:39:11;;;;;;;520.65;72.93;;;2.80;99.90;;;;;;5000314;28;20050;-62
2022/01/12 06:41:39;;;;;;;332.67;50.13;;;2.70;99.90;;;;;;4985761;28;20058;-61
2022/01/12 06:44:06;;;;;;;597.00;79.93;;;2.60;99.90;;;;;;5018774;28;20517;-60
2022/01/12 06:46:34;;;;;;;659.45;84.35;;;2.60;99.90;;;;;;5012428;28;20050;-62
2022/01/12 06:49:01;;;;;;;645.33;82.35;;;2.50;99.90;;;;;;5001150;28;20077;-62
2022/01/12 06:51:28;;;;;;;571.58;79.55;;;2.40;99.90;;;;;;4984707;28;20045;-60
2022/01/12 06:53:56;;;;;;;552.55;73.55;;;2.40;99.90;;;;;;4983323;28;20050;-61
2022/01/12 06:56:23;;;;;;;492.60;63.22;;;2.40;99.90;;;;;;4993780;28;20105;-61
2022/01/12 06:58:52;;;;;;;607.38;75.05;;;2.30;99.90;;;;;;5002935;28;20053;-61
2022/01/12 07:01:21;;;;;;;837.45;98.07;;;2.30;99.90;;;;;;4995581;28;20060;-61
2022/01/12 07:03:48;;;;;;;741.35;88.28;;;2.30;99.90;;;;;;4983475;28;20061;-61
2022/01/12 07:06:14;;;;;;;703.63;82.38;;;2.30;99.90;;;;;;4993708;28;20046;-61
2022/01/12 07:08:42;;;;;;;644.78;75.30;;;2.30;99.90;;;;;;4998463;28;20046;-63
2022/01/12 07:11:14;;;;;;;651.10;81.05;;;2.30;99.90;;;;;;4980391;28;20107;-61
2022/01/12 07:13:41;;;;;;;551.00;68.13;;;2.30;99.90;;;;;;4998436;28;20161;-61
2022/01/12 07:16:09;;;;;;;640.33;80.03;;;2.20;99.90;;;;;;4982942;28;20070;-60
2022/01/12 07:18:36;;;;;;;564.53;73.70;;;2.20;99.90;;;;;;4994485;28;20137;-61
2022/01/12 07:21:02;;;;;;;350.25;52.92;;;2.20;99.90;;;;;;4969818;28;20128;-61
2022/01/12 07:23:28;;;;;;;533.90;71.80;;;2.30;99.90;;;;;;4981563;28;20058;-61
2022/01/12 07:25:54;;;;;;;418.60;60.95;;;2.30;99.90;;;;;;5002958;28;20045;-60
2022/01/12 07:28:24;;;;;;;404.83;59.88;;;2.30;99.90;;;;;;4996238;28;20049;-61
2022/01/12 07:30:51;;;;;;;395.15;62.92;;;2.30;99.90;;;;;;4989745;28;20172;-61
2022/01/12 07:33:17;;;;;;;247.90;49.47;;;2.40;99.90;;;;;;4996537;28;20789;-60
2022/01/12 07:35:44;;;;;;;260.88;55.17;;;2.40;99.90;;;;;;4994903;28;20544;-61
2022/01/12 07:38:10;;;;;;;302.65;57.75;;;2.40;99.90;;;;;;4998111;28;20058;-60
2022/01/12 07:40:36;;;;;;;157.80;47.03;;;2.40;99.90;;;;;;4997733;28;20061;-60
2022/01/12 07:43:07;;;;;;;168.77;48.10;;;2.40;99.90;;;;;;4999945;28;20042;-60
2022/01/12 07:45:34;;;;;;;123.07;43.80;;;2.50;99.90;;;;;;4999243;28;20038;-60
2022/01/12 07:48:01;;;;;;;113.22;41.53;;;2.50;99.90;;;;;;5000604;28;20052;-61
2022/01/12 07:50:27;;;;;;;133.45;43.60;;;2.60;99.90;;;;;;5000342;28;20100;-60
2022/01/12 07:52:53;;;;;;;157.30;44.70;;;2.60;99.90;;;;;;4993378;28;20405;-59
2022/01/12 07:55:24;;;;;;;144.05;43.70;;;2.60;99.90;;;;;;4969775;28;20141;-59
2022/01/12 07:57:52;;;;;;;125.78;40.83;;;2.50;99.90;;;;;;4976879;28;20058;-59
2022/01/12 08:00:20;;;;;;;365.65;60.53;;;2.50;99.90;;;;;;4982532;28;20048;-60
2022/01/12 08:02:46;;;;;;;429.92;65.88;;;2.40;99.90;;;;;;4980604;28;20096;-60
2022/01/12 08:05:12;;;;;;;303.85;50.78;;;2.30;99.90;;;;;;4999403;28;20467;-60
2022/01/12 08:07:40;;;;;;;302.83;46.83;;;2.20;99.90;;;;;;4996629;28;20041;-59
2022/01/12 08:10:08;;;;;;;570.88;76.20;;;2.20;99.90;;;;;;4997916;28;20069;-59
2022/01/12 08:12:35;;;;;;;321.35;48.60;;;2.20;99.90;;;;;;4981278;28;20041;-60
2022/01/12 08:15:04;;;;;;;370.73;49.10;;;2.20;99.90;;;;;;5009269;28;20132;-59
2022/01/12 08:17:31;;;;;;;442.48;59.38;;;2.20;99.90;;;;;;5023707;28;20053;-59
2022/01/12 08:19:58;;;;;;;306.77;49.80;;;2.30;99.90;;;;;;5007639;28;20438;-59
2022/01/12 08:22:24;;;;;;;303.92;51.70;;;2.20;99.90;;;;;;5024242;28;20480;-59
2022/01/12 08:24:50;;;;;;;399.13;57.45;;;2.30;99.90;;;;;;5027445;28;20099;-59
2022/01/12 08:27:16;;;;;;;357.05;55.55;;;2.40;99.90;;;;;;5023366;28;20049;-59
2022/01/12 08:29:43;;;;;;;303.80;52.47;;;2.40;99.90;;;;;;5008765;28;20067;-59
2022/01/12 08:32:09;;;;;;;311.13;57.10;;;2.60;99.90;;;;;;5020401;28;20044;-59
2022/01/12 08:34:36;;;;;;;193.00;46.40;;;2.80;99.90;;;;;;5005330;28;20038;-60
2022/01/12 08:37:02;;;;;;;137.43;40.53;;;2.90;99.90;;;;;;5023472;28;20045;-60
2022/01/12 08:39:28;;;;;;;125.45;39.90;;;2.90;99.90;;;;;;5003998;28;20144;-60
2022/01/12 08:41:54;;;;;;;104.15;36.67;;;3.00;99.90;;;;;;5007893;28;20125;-60
2022/01/12 08:44:59;;;;;;;;;;;;;;;;;;;;;
2022/01/12 08:47:36;;;;;;;120.82;38.33;;;3.20;99.90;;;;;;4959746;28;20080;-61
2022/01/12 08:50:04;;;;;;;117.55;37.58;;;3.30;99.90;;;;;;5027889;28;20046;-61
2022/01/12 08:52:30;;;;;;;108.32;37.20;;;3.30;99.90;;;;;;5027127;28;20084;-62
2022/01/12 08:54:58;;;;;;;109.07;36.38;;;3.40;99.90;;;;;;5007979;28;20049;-62
2022/01/12 08:57:25;;;;;;;109.18;36.80;;;3.40;99.90;;;;;;5019992;28;20049;-62
2022/01/12 08:59:51;;;;;;;100.25;34.10;;;3.50;99.90;;;;;;4994873;28;20056;-62
2022/01/12 09:02:17;;;;;;;95.70;34.03;;;3.60;99.90;;;;;;4998010;28;20057;-62
2022/01/12 09:04:43;;;;;;;93.07;35.22;;;3.60;99.90;;;;;;5004804;28;20119;-62
2022/01/12 09:07:10;;;;;;;86.65;32.30;;;3.70;99.90;;;;;;5003704;28;20115;-62
2022/01/12 09:09:37;;;;;;;90.82;32.45;;;3.80;99.90;;;;;;4992747;28;20068;-60
2022/01/12 09:12:04;;;;;;;84.03;34.55;;;3.80;99.90;;;;;;5030146;28;20046;-60
2022/01/12 09:14:31;;;;;;;73.68;30.08;;;3.90;99.90;;;;;;4993551;28;20077;-59
2022/01/12 09:16:59;;;;;;;111.38;33.25;;;3.90;99.90;;;;;;5008260;28;20124;-60
2022/01/12 09:19:26;;;;;;;90.45;31.15;;;4.00;99.90;;;;;;5018678;28;20045;-60
2022/01/12 09:21:53;;;;;;;101.85;33.90;;;4.00;99.90;;;;;;5007715;28;20054;-60
2022/01/12 09:24:19;;;;;;;100.03;32.25;;;4.00;99.90;;;;;;5022804;28;20141;-60
2022/01/12 09:26:50;;;;;;;111.35;33.80;;;4.10;99.90;;;;;;5024141;28;20103;-60
2022/01/12 09:29:18;;;;;;;87.60;28.70;;;4.20;99.90;;;;;;5022650;28;20396;-60
2022/01/12 09:31:44;;;;;;;71.13;25.90;;;4.20;99.90;;;;;;5023914;28;20060;-60
2022/01/12 09:34:10;;;;;;;80.65;27.58;;;4.30;99.90;;;;;;5000960;28;20508;-60
2022/01/12 09:36:36;;;;;;;74.93;26.77;;;4.40;99.90;;;;;;5001586;28;20092;-60
2022/01/12 09:39:02;;;;;;;71.15;26.48;;;4.40;99.90;;;;;;5021977;28;20056;-60
2022/01/12 09:41:29;;;;;;;76.57;25.95;;;4.50;99.90;;;;;;5006352;28;20489;-60
2022/01/12 09:43:57;;;;;;;67.25;26.48;;;4.60;99.90;;;;;;5005447;28;20049;-60
2022/01/12 09:46:25;;;;;;;63.28;24.83;;;4.70;99.90;;;;;;5003245;28;20049;-60
2022/01/12 09:48:52;;;;;;;66.03;23.92;;;4.70;99.90;;;;;;4989892;28;20053;-60
2022/01/12 09:51:19;;;;;;;66.18;24.38;;;4.90;99.90;;;;;;5020847;28;20041;-60
2022/01/12 09:53:45;;;;;;;69.32;24.48;;;4.90;99.90;;;;;;5018246;28;20125;-62
2022/01/12 09:56:18;;;;;;;69.93;23.05;;;5.00;99.90;;;;;;5002163;28;20164;-62
2022/01/12 09:58:51;;;;;;;58.10;23.33;;;5.00;99.90;;;;;;5005190;28;20124;-61
2022/01/12 10:01:30;;;;;;;55.42;20.63;;;5.00;99.90;;;;;;5001180;28;20612;-59
2022/01/12 10:04:10;;;;;;;54.08;19.73;;;5.10;99.90;;;;;;5022048;28;20060;-61
2022/01/12 10:06:47;;;;;;;51.30;19.33;;;5.20;99.90;;;;;;5025390;28;20045;-61
2022/01/12 10:09:15;;;;;;;52.30;17.65;;;5.20;99.90;;;;;;4995460;28;20172;-59
2022/01/12 10:11:53;;;;;;;49.08;17.30;;;5.20;99.90;;;;;;5012705;28;20050;-59
2022/01/12 10:14:21;;;;;;;46.80;16.90;;;5.30;99.90;;;;;;4999711;28;20041;-61
2022/01/12 10:16:51;;;;;;;48.75;15.43;;;5.30;99.90;;;;;;5022002;28;20049;-57
2022/01/12 10:19:28;;;;;;;67.63;33.15;;;5.40;99.90;;;;;;4980764;28;20049;-57
2022/01/12 10:21:56;;;;;;;40.35;15.05;;;5.60;99.90;;;;;;5006116;28;20559;-60
2022/01/12 10:24:22;;;;;;;46.00;16.50;;;5.70;99.90;;;;;;5007309;28;20162;-60
2022/01/12 10:26:49;;;;;;;40.40;14.90;;;5.60;99.90;;;;;;5020876;28;20045;-60
2022/01/12 10:29:20;;;;;;;41.45;14.98;;;5.60;99.90;;;;;;5004809;28;20053;-60
2022/01/12 10:31:52;;;;;;;37.38;13.13;;;5.70;99.90;;;;;;5020935;28;20129;-60
2022/01/12 10:34:21;;;;;;;37.22;13.82;;;5.70;99.90;;;;;;4975316;28;20176;-60
2022/01/12 10:36:48;;;;;;;37.92;14.07;;;5.70;99.90;;;;;;4981395;28;20085;-60
2022/01/12 10:39:16;;;;;;;38.03;12.25;;;5.70;99.90;;;;;;5014731;28;20042;-60
2022/01/12 10:42:08;;;;;;;40.88;11.75;;;5.70;99.90;;;;;;5025419;28;20056;-60
2022/01/12 10:44:44;;;;;;;44.20;11.63;;;5.70;99.90;;;;;;4997097;28;20465;-60
2022/01/12 10:47:18;;;;;;;38.67;12.70;;;5.70;99.90;;;;;;5001856;28;20045;-60
2022/01/12 10:49:56;;;;;;;44.28;12.32;;;5.70;99.90;;;;;;5015581;28;20086;-59
2022/01/12 10:52:24;;;;;;;46.03;14.77;;;5.60;99.90;;;;;;4994639;28;20168;-61
2022/01/12 10:54:55;;;;;;;47.30;15.38;;;5.60;99.90;;;;;;5027039;28;20053;-61
2022/01/12 10:57:29;;;;;;;51.00;16.35;;;5.60;99.90;;;;;;5023546;28;20053;-60
2022/01/12 11:00:18;;;;;;;45.28;15.35;;;5.50;99.90;;;;;;4996136;28;20081;-60
2022/01/12 11:03:06;;;;;;;65.32;16.95;;;5.50;99.90;;;;;;5002911;28;20042;-61
2022/01/12 11:05:32;;;;;;;50.17;16.90;;;5.50;99.90;;;;;;5000668;28;20055;-60
2022/01/12 11:07:59;;;;;;;64.68;18.08;;;5.50;99.90;;;;;;5021113;28;20492;-61
2022/01/12 11:10:27;;;;;;;54.65;16.83;;;5.50;99.90;;;;;;4997036;28;20108;-60
2022/01/12 11:12:53;;;;;;;62.17;16.92;;;5.60;99.90;;;;;;5004886;28;20049;-61
2022/01/12 11:15:21;;;;;;;56.97;17.10;;;5.60;99.90;;;;;;5018313;28;20061;-60
2022/01/12 11:17:50;;;;;;;59.50;15.40;;;5.60;99.90;;;;;;5004037;28;20061;-60
2022/01/12 11:20:30;;;;;;;59.83;15.73;;;5.60;99.90;;;;;;4999415;28;20103;-60
2022/01/12 11:23:12;;;;;;;52.85;15.07;;;5.70;99.90;;;;;;4999155;28;20786;-61
2022/01/12 11:25:43;;;;;;;62.85;16.50;;;5.70;99.90;;;;;;5021689;28;20041;-60
2022/01/12 11:28:23;;;;;;;51.30;17.45;;;5.70;99.90;;;;;;5004043;28;20060;-62
2022/01/12 11:30:51;;;;;;;54.05;15.85;;;5.80;99.90;;;;;;5019079;28;20124;-61
2022/01/12 11:33:21;;;;;;;51.30;15.15;;;5.70;99.90;;;;;;5002968;28;20397;-62
2022/01/12 11:35:52;;;;;;;56.50;17.63;;;5.80;99.90;;;;;;5024598;28;20057;-62
2022/01/12 11:38:39;;;;;;;38.70;12.80;;;5.80;99.90;;;;;;5003438;28;20045;-62
2022/01/12 11:41:23;;;;;;;54.83;12.85;;;5.80;99.90;;;;;;5019298;28;20046;-62
2022/01/12 11:43:53;;;;;;;40.85;12.13;;;5.80;99.90;;;;;;5016856;28;20049;-62
2022/01/12 11:46:25;;;;;;;39.45;11.80;;;5.80;99.90;;;;;;5004615;28;20365;-62
2022/01/12 11:48:54;;;;;;;39.45;11.63;;;5.80;99.90;;;;;;5001213;28;20058;-62
2022/01/12 11:51:39;;;;;;;40.70;12.02;;;5.80;99.90;;;;;;5020598;28;20757;-62
2022/01/12 11:54:12;;;;;;;40.88;14.13;;;5.80;99.90;;;;;;5022490;28;20102;-62
2022/01/12 11:56:50;;;;;;;51.13;14.57;;;5.80;99.90;;;;;;4984388;28;20046;-62
2022/01/12 11:59:16;;;;;;;43.10;13.27;;;5.80;99.90;;;;;;4999904;28;20044;-63
2022/01/12 12:01:49;;;;;;;46.97;12.63;;;5.80;99.90;;;;;;5020821;28;20531;-62
2022/01/12 12:04:30;;;;;;;38.70;11.98;;;5.80;99.90;;;;;;5019435;28;20493;-62
2022/01/12 12:07:12;;;;;;;40.33;10.87;;;5.80;99.90;;;;;;5017237;28;20081;-62
2022/01/12 12:09:53;;;;;;;39.88;10.20;;;5.70;99.90;;;;;;5018266;28;20084;-62
2022/01/12 12:12:33;;;;;;;45.65;10.45;;;5.70;99.90;;;;;;5018434;28;20845;-62
2022/01/12 12:15:02;;;;;;;45.05;11.65;;;5.70;99.90;;;;;;5017547;28;20081;-61
2022/01/12 12:17:30;;;;;;;50.25;13.27;;;5.70;99.90;;;;;;5004686;28;20046;-60
2022/01/12 12:19:57;;;;;;;44.28;12.95;;;5.70;99.90;;;;;;5017075;28;20047;-60
2022/01/12 12:22:28;;;;;;;50.20;13.52;;;5.80;99.90;;;;;;4984685;28;20049;-60
2022/01/12 12:25:06;;;;;;;56.17;14.25;;;5.90;99.90;;;;;;5019252;28;20500;-60
2022/01/12 12:27:35;;;;;;;56.17;15.93;;;5.90;99.90;;;;;;4982406;28;20562;-59
2022/01/12 12:30:05;;;;;;;52.60;16.52;;;5.90;99.90;;;;;;4999087;28;20596;-61
2022/01/12 12:32:41;;;;;;;45.88;16.40;;;5.90;99.90;;;;;;5001955;28;20053;-61
2022/01/12 12:35:09;;;;;;;49.70;15.23;;;5.90;99.90;;;;;;5018880;28;20089;-61
2022/01/12 12:37:38;;;;;;;41.40;16.35;;;5.90;99.90;;;;;;5019947;28;20048;-61
2022/01/12 12:40:33;;;;;;;42.92;17.63;;;5.80;99.90;;;;;;5017067;28;20046;-59
2022/01/12 12:43:23;;;;;;;38.22;17.00;;;5.70;99.90;;;;;;5017409;28;20172;-61
2022/01/12 12:45:54;;;;;;;46.35;17.77;;;5.70;99.90;;;;;;5020561;28;20049;-61
2022/01/12 12:48:26;;;;;;;48.08;18.02;;;5.70;99.90;;;;;;5017447;28;20070;-61
2022/01/12 12:51:01;;;;;;;42.83;17.27;;;5.70;99.90;;;;;;5004470;28;20068;-61
2022/01/12 12:53:56;;;;;;;42.60;18.23;;;5.70;99.90;;;;;;5019231;28;20580;-61
2022/01/12 12:56:27;;;;;;;43.65;18.58;;;5.70;99.90;;;;;;5019821;28;20100;-61
2022/01/12 12:58:56;;;;;;;56.80;18.97;;;5.70;99.90;;;;;;5006591;28;20085;-60
2022/01/12 13:01:25;;;;;;;40.88;17.52;;;5.70;99.90;;;;;;5023525;28;20522;-61
2022/01/12 13:04:00;;;;;;;48.78;21.15;;;5.70;99.90;;;;;;5003886;28;20153;-60
2022/01/12 13:06:30;;;;;;;37.22;17.05;;;5.70;99.90;;;;;;5022698;28;20397;-60
2022/01/12 13:09:04;;;;;;;32.75;15.18;;;5.80;99.90;;;;;;5021915;28;20049;-61
2022/01/12 13:11:35;;;;;;;27.90;15.15;;;5.80;99.90;;;;;;5003489;28;20054;-61
2022/01/12 13:14:10;;;;;;;34.20;14.43;;;5.90;99.90;;;;;;5006577;28;20092;-61
2022/01/12 13:16:49;;;;;;;28.02;14.23;;;5.90;99.90;;;;;;5021986;28;20044;-59
2022/01/12 13:22:35;;;;;;;34.50;15.25;;;5.80;99.90;;;;;;5024894;28;21622;-61
2022/01/12 13:25:07;;;;;;;34.50;12.98;;;5.70;99.90;;;;;;5005142;28;20057;-60
2022/01/12 13:27:35;;;;;;;28.35;11.23;;;5.60;99.90;;;;;;5003407;28;20042;-61
2022/01/12 13:30:04;;;;;;;27.13;12.07;;;5.60;99.90;;;;;;5005045;28;20045;-61
2022/01/12 13:32:30;;;;;;;32.38;13.07;;;5.50;99.90;;;;;;5024817;28;20053;-61
2022/01/12 13:35:05;;;;;;;40.80;12.82;;;5.40;99.90;;;;;;5021036;28;20056;-60
2022/01/12 13:37:31;;;;;;;28.95;12.40;;;5.40;99.90;;;;;;5000540;28;20041;-61
2022/01/12 13:40:04;;;;;;;29.35;12.55;;;5.30;99.90;;;;;;5024483;28;20057;-61
2022/01/12 13:42:30;;;;;;;36.17;13.27;;;5.40;99.90;;;;;;5020282;28;20045;-61
2022/01/12 13:45:05;;;;;;;40.25;13.82;;;5.40;99.90;;;;;;4988617;28;20145;-61
2022/01/12 13:47:35;;;;;;;39.30;14.18;;;5.30;99.90;;;;;;5017832;28;20085;-61
2022/01/12 13:50:08;;;;;;;35.53;15.80;;;5.30;99.90;;;;;;5020630;28;20034;-61
2022/01/12 13:52:36;;;;;;;42.45;15.88;;;5.30;99.90;;;;;;5002777;28;20090;-60
2022/01/12 13:55:13;;;;;;;39.70;16.05;;;5.20;99.90;;;;;;5020106;28;20129;-58
2022/01/12 13:57:40;;;;;;;44.30;16.88;;;5.20;99.90;;;;;;5018681;28;20102;-62
2022/01/12 14:00:19;;;;;;;41.35;17.83;;;5.20;99.90;;;;;;4972272;28;20084;-60
2022/01/12 14:02:46;;;;;;;37.33;16.02;;;5.10;99.90;;;;;;5024395;28;20050;-62
2022/01/12 14:05:18;;;;;;;46.45;17.52;;;5.10;99.90;;;;;;5022359;28;20460;-61